createdAt,value
2022-09-17T00:00:53.552Z,100.00
2022-09-17T00:04:00.127Z,100.00
2022-09-17T00:07:04.268Z,100.00
2022-09-17T00:10:08.350Z,100.00
2022-09-17T00:13:15.715Z,100.00
2022-09-17T00:16:27.252Z,100.00
2022-09-17T00:19:30.336Z,100.00
2022-09-17T00:22:33.302Z,100.00
2022-09-17T00:25:38.748Z,100.00
2022-09-17T00:28:45.436Z,100.00
2022-09-17T00:31:48.567Z,100.00
2022-09-17T00:34:52.165Z,100.00
2022-09-17T00:37:55.324Z,100.00
2022-09-17T00:40:58.309Z,100.00
2022-09-17T00:44:44.198Z,100.00
2022-09-17T00:47:53.293Z,100.00
2022-09-17T00:50:58.734Z,100.00
2022-09-17T00:54:03.927Z,100.00
2022-09-17T00:57:08.147Z,100.00
2022-09-17T01:00:14.971Z,100.00
2022-09-17T01:03:19.527Z,100.00
2022-09-17T01:06:33.426Z,100.00
2022-09-17T01:09:52.114Z,100.00
2022-09-17T01:13:10.181Z,100.00
2022-09-17T01:16:21.593Z,100.00
2022-09-17T01:20:07.469Z,100.00
2022-09-17T01:23:42.551Z,100.00
2022-09-17T01:27:29.647Z,100.00
2022-09-17T01:30:56.112Z,100.00
2022-09-17T01:34:06.213Z,100.00
2022-09-17T01:37:16.097Z,100.00
2022-09-17T01:40:25.863Z,100.00
2022-09-17T01:43:35.602Z,100.00
2022-09-17T01:46:44.893Z,100.00
2022-09-17T01:49:49.311Z,100.00
2022-09-17T01:52:54.672Z,100.00
2022-09-17T01:56:01.709Z,100.00
2022-09-17T01:59:11.329Z,100.00
2022-09-17T02:02:21.433Z,100.00
2022-09-17T02:05:30.449Z,100.00
2022-09-17T02:08:40.795Z,100.00
2022-09-17T02:11:50.011Z,100.00
2022-09-17T02:14:55.876Z,100.00
2022-09-17T02:18:08.199Z,100.00
2022-09-17T02:21:18.311Z,100.00
2022-09-17T02:24:25.610Z,100.00
2022-09-17T02:27:42.898Z,100.00
2022-09-17T02:30:45.962Z,100.00
2022-09-17T02:33:53.975Z,100.00
2022-09-17T02:36:58.460Z,100.00
2022-09-17T02:40:02.293Z,100.00
2022-09-17T02:43:19.039Z,100.00
2022-09-17T02:46:45.639Z,100.00
2022-09-17T02:50:14.789Z,100.00
2022-09-17T02:53:35.571Z,100.00
2022-09-17T02:56:48.201Z,100.00
2022-09-17T03:00:03.635Z,100.00
2022-09-17T03:03:13.795Z,100.00
2022-09-17T03:06:19.077Z,100.00
2022-09-17T03:09:22.021Z,100.00
2022-09-17T03:12:25.719Z,100.00
2022-09-17T03:15:28.750Z,100.00
2022-09-17T03:18:32.140Z,100.00
2022-09-17T03:21:36.506Z,100.00
2022-09-17T03:24:39.605Z,100.00
2022-09-17T03:27:43.016Z,100.00
2022-09-17T03:30:46.338Z,100.00
2022-09-17T03:33:50.135Z,100.00
2022-09-17T03:36:54.429Z,100.00
2022-09-17T03:39:57.463Z,100.00
2022-09-17T03:43:00.459Z,100.00
2022-09-17T03:46:03.894Z,100.00
2022-09-17T03:49:06.898Z,100.00
2022-09-17T03:52:11.159Z,100.00
2022-09-17T03:55:14.483Z,100.00
2022-09-17T03:58:17.491Z,100.00
2022-09-17T04:01:20.481Z,100.00
2022-09-17T04:04:23.662Z,100.00
2022-09-17T04:07:28.094Z,100.00
2022-09-17T04:10:31.080Z,100.00
2022-09-17T04:13:34.676Z,100.00
2022-09-17T04:16:37.662Z,100.00
2022-09-17T04:19:41.011Z,100.00
2022-09-17T04:22:45.334Z,100.00
2022-09-17T04:25:48.405Z,100.00
2022-09-17T04:28:51.757Z,100.00
2022-09-17T04:31:54.889Z,100.00
2022-09-17T04:34:57.826Z,100.00
2022-09-17T04:38:02.273Z,100.00
2022-09-17T04:41:08.133Z,100.00
2022-09-17T04:44:11.081Z,100.00
2022-09-17T04:47:14.055Z,100.00
2022-09-17T04:50:17.474Z,100.00
2022-09-17T04:53:21.865Z,100.00
2022-09-17T04:56:24.825Z,100.00
2022-09-17T04:59:27.812Z,100.00
2022-09-17T05:02:30.872Z,100.00
2022-09-17T05:05:34.006Z,100.00
2022-09-17T05:08:38.386Z,100.00
2022-09-17T05:11:41.564Z,100.00
2022-09-17T05:14:44.565Z,100.00
2022-09-17T05:17:47.769Z,100.00
2022-09-17T05:20:50.844Z,100.00
2022-09-17T05:23:55.406Z,100.00
2022-09-17T05:26:58.537Z,100.00
2022-09-17T05:30:01.529Z,100.00
2022-09-17T05:33:07.000Z,100.00
2022-09-17T05:36:10.040Z,100.00
2022-09-17T05:39:14.358Z,100.00
2022-09-17T05:42:17.453Z,100.00
2022-09-17T05:45:20.453Z,100.00
2022-09-17T05:48:23.642Z,100.00
2022-09-17T05:51:26.730Z,100.00
2022-09-17T05:54:31.069Z,100.00
2022-09-17T05:57:34.107Z,100.00
2022-09-17T06:00:37.117Z,100.00
2022-09-17T06:03:40.331Z,100.00
2022-09-17T06:06:43.577Z,100.00
2022-09-17T06:09:48.025Z,100.00
2022-09-17T06:12:57.482Z,100.00
2022-09-17T06:16:01.191Z,100.00
2022-09-17T06:19:04.915Z,100.00
2022-09-17T06:22:07.942Z,100.00
2022-09-17T06:25:13.246Z,100.00
2022-09-17T06:28:16.367Z,100.00
2022-09-17T06:31:19.817Z,100.00
2022-09-17T06:34:23.201Z,100.00
2022-09-17T06:37:29.178Z,100.00
2022-09-17T06:40:34.617Z,100.00
2022-09-17T06:43:37.675Z,100.00
2022-09-17T06:46:40.759Z,100.00
2022-09-17T06:49:44.155Z,100.00
2022-09-17T06:52:50.192Z,100.00
2022-09-17T06:56:02.348Z,100.00
2022-09-17T06:59:08.433Z,100.00
2022-09-17T07:02:11.474Z,100.00
2022-09-17T07:05:14.528Z,100.00
2022-09-17T07:08:18.292Z,100.00
2022-09-17T07:11:22.942Z,100.00
2022-09-17T07:14:25.933Z,100.00
2022-09-17T07:17:30.552Z,100.00
2022-09-17T07:20:33.599Z,100.00
2022-09-17T07:23:38.335Z,100.00
2022-09-17T07:26:42.670Z,100.00
2022-09-17T07:29:45.928Z,100.00
2022-09-17T07:32:49.148Z,100.00
2022-09-17T07:35:56.136Z,100.00
2022-09-17T07:38:59.233Z,100.00
2022-09-17T07:42:04.522Z,100.00
2022-09-17T07:45:09.858Z,100.00
2022-09-17T07:48:12.890Z,100.00
2022-09-17T07:51:17.939Z,100.00
2022-09-17T07:54:21.030Z,100.00
2022-09-17T07:57:25.731Z,100.00
2022-09-17T08:00:28.685Z,100.00
2022-09-17T08:03:31.776Z,100.00
2022-09-17T08:06:40.251Z,100.00
2022-09-17T08:09:43.603Z,100.00
2022-09-17T08:12:48.431Z,100.00
2022-09-17T08:15:51.414Z,100.00
2022-09-17T08:18:58.034Z,100.00
2022-09-17T08:22:01.033Z,100.00
2022-09-17T08:25:04.527Z,100.00
2022-09-17T08:28:09.187Z,100.00
2022-09-17T08:31:13.571Z,100.00
2022-09-17T08:34:16.842Z,100.00
2022-09-17T08:37:19.940Z,100.00
2022-09-17T08:40:24.661Z,100.00
2022-09-17T08:43:32.307Z,100.00
2022-09-17T08:46:42.917Z,100.00
2022-09-17T08:49:52.430Z,100.00
2022-09-17T08:53:23.520Z,100.00
2022-09-17T08:56:27.362Z,100.00
2022-09-17T08:59:39.200Z,100.00
2022-09-17T09:03:03.546Z,100.00
2022-09-17T09:06:10.625Z,100.00
2022-09-17T09:09:18.035Z,100.00
2022-09-17T09:12:26.962Z,100.00
2022-09-17T09:15:39.505Z,100.00
2022-09-17T09:18:43.071Z,100.00
2022-09-17T09:21:59.194Z,100.00
2022-09-17T09:25:20.317Z,100.00
2022-09-17T09:28:43.835Z,100.00
2022-09-17T09:32:16.853Z,100.00
2022-09-17T09:35:23.083Z,100.00
2022-09-17T09:38:33.882Z,100.00
2022-09-17T09:41:45.281Z,100.00
2022-09-17T09:44:48.379Z,100.00
2022-09-17T09:48:02.691Z,100.00
2022-09-17T09:51:19.700Z,100.00
2022-09-17T09:54:42.859Z,100.00
2022-09-17T09:57:49.019Z,100.00
2022-09-17T10:00:52.575Z,100.00
2022-09-17T10:03:58.948Z,100.00
2022-09-17T10:07:04.985Z,100.00
2022-09-17T10:10:11.834Z,100.00
2022-09-17T10:13:17.745Z,100.00
2022-09-17T10:16:24.411Z,100.00
2022-09-17T10:19:28.779Z,100.00
2022-09-17T10:22:34.456Z,100.00
2022-09-17T10:25:44.390Z,100.00
2022-09-17T10:28:51.860Z,100.00
2022-09-17T10:31:57.150Z,100.00
2022-09-17T10:35:07.164Z,100.00
2022-09-17T10:38:29.769Z,100.00
2022-09-17T10:41:33.013Z,100.00
2022-09-17T10:44:37.665Z,100.00
2022-09-17T10:47:43.853Z,100.00
2022-09-17T10:50:52.854Z,100.00
2022-09-17T10:54:29.415Z,100.00
2022-09-17T10:57:55.084Z,100.00
2022-09-17T11:01:11.876Z,100.00
2022-09-17T11:04:26.971Z,100.00
2022-09-17T11:07:46.065Z,100.00
2022-09-17T11:10:59.182Z,100.00
2022-09-17T11:14:14.162Z,100.00
2022-09-17T11:17:40.355Z,100.00
2022-09-17T11:21:10.599Z,100.00
2022-09-17T11:24:48.857Z,100.00
2022-09-17T11:28:07.685Z,100.00
2022-09-17T11:31:25.956Z,100.00
2022-09-17T11:34:36.807Z,100.00
2022-09-17T11:37:49.046Z,100.00
2022-09-17T11:41:02.508Z,100.00
2022-09-17T11:44:13.196Z,100.00
2022-09-17T11:47:21.655Z,100.00
2022-09-17T11:50:30.933Z,100.00
2022-09-17T11:53:40.735Z,100.00
2022-09-17T11:56:48.742Z,100.00
2022-09-17T11:59:56.758Z,100.00
2022-09-17T12:03:06.910Z,100.00
2022-09-17T12:06:15.883Z,100.00
2022-09-17T12:09:33.548Z,100.00
2022-09-17T12:12:50.164Z,100.00
2022-09-17T12:16:06.375Z,100.00
2022-09-17T12:19:18.502Z,100.00
2022-09-17T12:22:26.380Z,100.00
2022-09-17T12:25:35.282Z,100.00
2022-09-17T12:28:50.355Z,100.00
2022-09-17T12:31:59.903Z,100.00
2022-09-17T12:35:18.860Z,100.00
2022-09-17T12:38:53.594Z,100.00
2022-09-17T12:42:11.654Z,100.00
2022-09-17T12:45:38.492Z,100.00
2022-09-17T12:49:00.448Z,100.00
2022-09-17T12:52:08.162Z,100.00
2022-09-17T12:55:45.582Z,100.00
2022-09-17T12:59:10.959Z,100.00
2022-09-17T13:02:23.204Z,100.00
2022-09-17T13:06:00.351Z,100.00
2022-09-17T13:09:52.095Z,100.00
2022-09-17T13:13:05.821Z,100.00
2022-09-17T13:16:19.868Z,100.00
2022-09-17T13:19:37.094Z,100.00
2022-09-17T13:22:47.220Z,86.78
2022-09-17T13:25:52.993Z,86.52
2022-09-17T13:28:56.103Z,82.05
2022-09-17T13:31:59.255Z,82.56
2022-09-17T13:35:52.130Z,84.67
2022-09-17T13:38:55.218Z,89.67
2022-09-17T13:42:08.140Z,86.29
2022-09-17T13:45:16.147Z,96.42
2022-09-17T13:48:23.011Z,87.26
2022-09-17T13:51:52.397Z,86.22
2022-09-17T13:54:56.472Z,84.00
2022-09-17T13:57:59.578Z,72.67
2022-09-17T14:01:04.300Z,87.57
2022-09-17T14:04:08.158Z,75.40
2022-09-17T14:07:34.924Z,82.05
2022-09-17T14:10:44.167Z,83.91
2022-09-17T14:13:47.253Z,86.75
2022-09-17T14:16:51.363Z,89.60
2022-09-17T14:19:55.443Z,93.52
2022-09-17T14:23:02.278Z,93.69
2022-09-17T14:26:09.485Z,85.78
2022-09-17T14:29:30.100Z,91.22
2022-09-17T14:32:40.557Z,93.94
2022-09-17T14:35:46.319Z,90.85
2022-09-17T14:38:54.237Z,92.29
2022-09-17T14:41:57.697Z,98.68
2022-09-17T14:45:04.525Z,100.00
2022-09-17T14:48:31.153Z,100.00
2022-09-17T14:51:34.137Z,100.00
2022-09-17T14:54:38.682Z,100.00
2022-09-17T14:57:41.639Z,100.00
2022-09-17T15:00:53.621Z,100.00
2022-09-17T15:04:11.855Z,100.00
2022-09-17T15:07:14.937Z,100.00
2022-09-17T15:10:22.992Z,100.00
2022-09-17T15:13:28.767Z,96.59
2022-09-17T15:16:33.318Z,98.51
2022-09-17T15:19:40.046Z,94.92
2022-09-17T15:22:45.251Z,97.35
2022-09-17T15:25:54.922Z,99.08
2022-09-17T15:28:58.617Z,100.00
2022-09-17T15:32:05.898Z,100.00
2022-09-17T15:35:28.336Z,100.00
2022-09-17T15:38:32.987Z,100.00
2022-09-17T15:41:39.684Z,100.00
2022-09-17T15:44:42.878Z,100.00
2022-09-17T15:47:55.272Z,100.00
2022-09-17T15:51:00.678Z,100.00
2022-09-17T15:54:06.391Z,100.00
2022-09-17T15:57:17.195Z,100.00
2022-09-17T16:00:20.614Z,100.00
2022-09-17T16:04:06.703Z,100.00
2022-09-17T16:07:30.073Z,100.00
2022-09-17T16:10:34.579Z,100.00
2022-09-17T16:13:38.957Z,100.00
2022-09-17T16:16:42.115Z,100.00
2022-09-17T16:19:45.240Z,100.00
2022-09-17T16:22:49.477Z,100.00
2022-09-17T16:25:53.191Z,100.00
2022-09-17T16:29:03.345Z,100.00
2022-09-17T16:32:07.432Z,100.00
2022-09-17T16:35:17.219Z,100.00
2022-09-17T16:38:20.755Z,100.00
2022-09-17T16:41:23.842Z,100.00
2022-09-17T16:44:29.386Z,100.00
2022-09-17T16:47:37.124Z,100.00
2022-09-17T16:50:41.866Z,100.00
2022-09-17T16:53:44.875Z,100.00
2022-09-17T16:56:48.360Z,100.00
2022-09-17T16:59:52.702Z,100.00
2022-09-17T17:02:57.850Z,100.00
2022-09-17T17:06:00.876Z,100.00
2022-09-17T17:09:04.493Z,100.00
2022-09-17T17:12:08.223Z,100.00
2022-09-17T17:15:15.161Z,100.00
2022-09-17T17:18:21.554Z,100.00
2022-09-17T17:21:24.570Z,100.00
2022-09-17T17:24:27.503Z,100.00
2022-09-17T17:27:30.636Z,100.00
2022-09-17T17:30:35.326Z,100.00
2022-09-17T17:33:38.516Z,100.00
2022-09-17T17:36:42.145Z,100.00
2022-09-17T17:39:45.634Z,100.00
2022-09-17T17:42:52.888Z,100.00
2022-09-17T17:45:57.222Z,100.00
2022-09-17T17:49:00.425Z,100.00
2022-09-17T17:52:04.007Z,100.00
2022-09-17T17:55:08.491Z,100.00
2022-09-17T17:58:11.546Z,100.00
2022-09-17T18:01:17.937Z,100.00
2022-09-17T18:04:21.174Z,100.00
2022-09-17T18:07:24.287Z,100.00
2022-09-17T18:10:27.783Z,100.00
2022-09-17T18:13:30.975Z,100.00
2022-09-17T18:16:35.321Z,100.00
2022-09-17T18:19:38.350Z,100.00
2022-09-17T18:22:41.296Z,100.00
2022-09-17T18:25:53.293Z,100.00
2022-09-17T18:28:56.812Z,100.00
2022-09-17T18:32:01.429Z,100.00
2022-09-17T18:35:13.424Z,100.00
2022-09-17T18:38:22.823Z,100.00
2022-09-17T18:41:42.548Z,100.00
2022-09-17T18:44:46.051Z,100.00
2022-09-17T18:47:53.052Z,100.00
2022-09-17T18:50:58.625Z,100.00
2022-09-17T18:54:01.695Z,100.00
2022-09-17T18:57:05.649Z,100.00
2022-09-17T19:00:15.251Z,100.00
2022-09-17T19:03:23.035Z,100.00
2022-09-17T19:06:32.517Z,100.00
2022-09-17T19:09:36.978Z,100.00
2022-09-17T19:12:40.949Z,100.00
2022-09-17T19:15:43.982Z,100.00
2022-09-17T19:18:48.361Z,100.00
2022-09-17T19:21:53.188Z,100.00
2022-09-17T19:24:56.176Z,100.00
2022-09-17T19:27:59.384Z,100.00
2022-09-17T19:31:07.530Z,100.00
2022-09-17T19:34:13.521Z,100.00
2022-09-17T19:37:18.725Z,100.00
2022-09-17T19:40:29.328Z,100.00
2022-09-17T19:43:34.670Z,100.00
2022-09-17T19:46:40.896Z,100.00
2022-09-17T19:49:52.308Z,100.00
2022-09-17T19:52:55.509Z,100.00
2022-09-17T19:55:58.588Z,100.00
2022-09-17T19:59:08.866Z,100.00
2022-09-17T20:02:18.163Z,100.00
2022-09-17T20:05:22.657Z,100.00
2022-09-17T20:08:25.746Z,100.00
2022-09-17T20:11:28.824Z,100.00
2022-09-17T20:14:32.606Z,100.00
2022-09-17T20:17:41.772Z,100.00
2022-09-17T20:20:53.787Z,100.00
2022-09-17T20:24:05.314Z,100.00
2022-09-17T20:27:08.277Z,100.00
2022-09-17T20:30:21.357Z,100.00
2022-09-17T20:33:24.485Z,100.00
2022-09-17T20:36:31.638Z,100.00
2022-09-17T20:39:34.731Z,100.00
2022-09-17T20:42:37.742Z,100.00
2022-09-17T20:45:40.921Z,100.00
2022-09-17T20:48:44.172Z,100.00
2022-09-17T20:51:48.453Z,100.00
2022-09-17T20:54:51.400Z,100.00
2022-09-17T20:57:55.350Z,100.00
2022-09-17T21:01:06.796Z,100.00
2022-09-17T21:04:10.050Z,100.00
2022-09-17T21:07:14.479Z,100.00
2022-09-17T21:10:17.526Z,100.00
2022-09-17T21:13:20.684Z,100.00
2022-09-17T21:16:24.879Z,100.00
2022-09-17T21:19:29.312Z,100.00
2022-09-17T21:22:33.916Z,100.00
2022-09-17T21:25:36.855Z,100.00
2022-09-17T21:28:41.123Z,100.00
2022-09-17T21:31:44.591Z,100.00
2022-09-17T21:34:47.651Z,100.00
2022-09-17T21:37:53.139Z,100.00
2022-09-17T21:40:57.162Z,100.00
2022-09-17T21:44:00.393Z,100.00
2022-09-17T21:47:03.344Z,100.00
2022-09-17T21:50:07.669Z,100.00
2022-09-17T21:53:12.107Z,100.00
2022-09-17T21:56:17.422Z,100.00
2022-09-17T21:59:24.212Z,100.00
2022-09-17T22:02:27.933Z,100.00
2022-09-17T22:05:33.591Z,100.00
2022-09-17T22:08:38.031Z,100.00
2022-09-17T22:11:43.599Z,100.00
2022-09-17T22:14:46.978Z,100.00
2022-09-17T22:17:49.951Z,100.00
2022-09-17T22:20:52.999Z,100.00
2022-09-17T22:24:01.620Z,100.00
2022-09-17T22:27:04.818Z,100.00
2022-09-17T22:30:09.440Z,100.00
2022-09-17T22:33:12.367Z,100.00
2022-09-17T22:36:17.692Z,100.00
2022-09-17T22:39:23.265Z,100.00
2022-09-17T22:42:26.274Z,100.00
2022-09-17T22:45:29.876Z,100.00
2022-09-17T22:48:33.316Z,100.00
2022-09-17T22:51:36.892Z,100.00
2022-09-17T22:54:41.186Z,100.00
2022-09-17T22:57:44.176Z,100.00
2022-09-17T23:00:47.166Z,100.00
2022-09-17T23:03:53.082Z,100.00
2022-09-17T23:06:56.037Z,100.00
2022-09-17T23:10:00.514Z,100.00
2022-09-17T23:13:03.503Z,100.00
2022-09-17T23:16:09.870Z,100.00
2022-09-17T23:19:13.865Z,100.00
2022-09-17T23:22:16.810Z,100.00
2022-09-17T23:25:21.052Z,100.00
2022-09-17T23:28:24.297Z,100.00
2022-09-17T23:31:29.772Z,100.00
2022-09-17T23:34:34.988Z,100.00
2022-09-17T23:37:37.911Z,100.00
2022-09-17T23:40:42.401Z,100.00
2022-09-17T23:43:48.272Z,100.00
2022-09-17T23:46:51.264Z,100.00
2022-09-17T23:49:54.309Z,100.00
2022-09-17T23:52:57.487Z,100.00
2022-09-17T23:56:03.274Z,100.00
2022-09-17T23:59:07.310Z,100.00
